Huvudsida
METAR-TAF:

METAR-TAF

Flygplatser :

N'Djamena, Tchad

latitud: 12-08N, longitud: 015-02E, höjd: 295 m

Aktuellt väderrapport

Denna rapport gjordes för 34 minuter sedan, klockan 07:00 UTC
Vind 2 kt varierande vindriktning
Temperatur 25°C
Fuktighet 83%
Tryck 1014 hPa
Sikt 10 km eller mer
Inga moln under 1 500 m eller inga cumulonimbus

METAR: FTTJ 150700Z VRB02KT CAVOK 25/22 Q1014 NOSIG

Tid: 08:34 (07:34 UTC)

Väderprognos

Denna rapport gjordes för 1 timme och 26 minuter sedan, klockan 06:08 UTC
Prognos gäller från 15 kl. 06 UTC till 16 kl. 12 UTC
Vind 5 kt från väst/sydväst
Sikt 10 km eller mer
Få moln på en höjd av 3000 ft
Sannolikhet 30% :
Temporärt
från 15 kl. 10 UTC till 15 kl. 18 UTC
Sikt: 4000 m
åska, regn

TAF: FTTJ 150608Z 1506/1612 24005KT 9999 FEW030 PROB30 TEMPO 1510/1518 4000 TSRA

Aktuella väderrapporter och prognoser från 4000 flygplatser (METAR- och TAF-rapporter).

De tillgängliga stationerna syns som gula och röda prickar på kartan.

För musen över prickarna för att se namnen på stationerna.

Klicka sedan för att få väderrapporter och prognoser.

För att ändra kartan: Klicka på de gröna knapparna med ett svart kors på för att zooma in; den gröna knappen med ett streck på för att zooma ut; eller på de gröna pilarna för angränsande kartor.


METAR-TAF: